sensor_id;sensor_type;location;lat;lon;timestamp;P1;durP1;ratioP1;P2;durP2;ratioP2
2558;SDS011;1289;53.488;10.006;2023-06-22T00:02:00;7.20;;;6.50;;
2558;SDS011;1289;53.488;10.006;2023-06-22T00:04:26;9.83;;;6.00;;
2558;SDS011;1289;53.488;10.006;2023-06-22T00:06:53;7.10;;;6.40;;
2558;SDS011;1289;53.488;10.006;2023-06-22T00:09:20;9.67;;;5.80;;
2558;SDS011;1289;53.488;10.006;2023-06-22T00:11:46;10.87;;;6.13;;
2558;SDS011;1289;53.488;10.006;2023-06-22T00:14:13;7.30;;;5.60;;
2558;SDS011;1289;53.488;10.006;2023-06-22T00:16:41;7.60;;;6.20;;
2558;SDS011;1289;53.488;10.006;2023-06-22T00:19:07;6.10;;;5.50;;
2558;SDS011;1289;53.488;10.006;2023-06-22T00:21:36;7.70;;;5.90;;
2558;SDS011;1289;53.488;10.006;2023-06-22T00:24:04;7.60;;;6.50;;
2558;SDS011;1289;53.488;10.006;2023-06-22T00:26:31;6.40;;;5.80;;
2558;SDS011;1289;53.488;10.006;2023-06-22T00:28:59;10.10;;;6.50;;
2558;SDS011;1289;53.488;10.006;2023-06-22T00:31:25;7.27;;;5.80;;
2558;SDS011;1289;53.488;10.006;2023-06-22T00:33:54;6.83;;;6.07;;
2558;SDS011;1289;53.488;10.006;2023-06-22T00:36:21;8.13;;;7.30;;
2558;SDS011;1289;53.488;10.006;2023-06-22T00:38:50;7.80;;;5.80;;
2558;SDS011;1289;53.488;10.006;2023-06-22T00:41:16;7.17;;;6.47;;
2558;SDS011;1289;53.488;10.006;2023-06-22T00:43:43;6.20;;;5.70;;
2558;SDS011;1289;53.488;10.006;2023-06-22T00:46:09;6.00;;;5.40;;
2558;SDS011;1289;53.488;10.006;2023-06-22T00:48:36;6.83;;;6.10;;
2558;SDS011;1289;53.488;10.006;2023-06-22T00:51:04;8.60;;;6.27;;
2558;SDS011;1289;53.488;10.006;2023-06-22T00:53:31;6.67;;;5.97;;
2558;SDS011;1289;53.488;10.006;2023-06-22T00:56:00;9.97;;;6.43;;
2558;SDS011;1289;53.488;10.006;2023-06-22T00:58:28;7.13;;;6.43;;
2558;SDS011;1289;53.488;10.006;2023-06-22T01:00:55;6.70;;;6.10;;
2558;SDS011;1289;53.488;10.006;2023-06-22T01:03:21;9.83;;;6.00;;
2558;SDS011;1289;53.488;10.006;2023-06-22T01:05:48;7.87;;;6.80;;
2558;SDS011;1289;53.488;10.006;2023-06-22T01:08:20;7.00;;;6.30;;
2558;SDS011;1289;53.488;10.006;2023-06-22T01:10:51;8.80;;;6.60;;
2558;SDS011;1289;53.488;10.006;2023-06-22T01:13:25;7.47;;;6.47;;
2558;SDS011;1289;53.488;10.006;2023-06-22T01:15:55;10.93;;;7.63;;
2558;SDS011;1289;53.488;10.006;2023-06-22T01:18:25;7.50;;;6.80;;
2558;SDS011;1289;53.488;10.006;2023-06-22T01:20:54;11.00;;;7.57;;
2558;SDS011;1289;53.488;10.006;2023-06-22T01:23:27;7.10;;;6.40;;
2558;SDS011;1289;53.488;10.006;2023-06-22T01:26:11;8.10;;;6.50;;
2558;SDS011;1289;53.488;10.006;2023-06-22T01:28:48;8.40;;;6.40;;
2558;SDS011;1289;53.488;10.006;2023-06-22T01:31:16;6.50;;;5.90;;
2558;SDS011;1289;53.488;10.006;2023-06-22T01:33:44;9.10;;;7.00;;
2558;SDS011;1289;53.488;10.006;2023-06-22T01:36:13;7.83;;;7.07;;
2558;SDS011;1289;53.488;10.006;2023-06-22T01:38:40;8.27;;;7.10;;
2558;SDS011;1289;53.488;10.006;2023-06-22T01:41:08;8.83;;;8.00;;
2558;SDS011;1289;53.488;10.006;2023-06-22T01:43:35;9.10;;;8.30;;
2558;SDS011;1289;53.488;10.006;2023-06-22T01:46:03;9.00;;;8.20;;
2558;SDS011;1289;53.488;10.006;2023-06-22T01:48:30;9.57;;;8.67;;
2558;SDS011;1289;53.488;10.006;2023-06-22T01:50:57;9.17;;;8.27;;
2558;SDS011;1289;53.488;10.006;2023-06-22T01:53:24;10.40;;;7.60;;
2558;SDS011;1289;53.488;10.006;2023-06-22T01:55:52;11.57;;;8.87;;
2558;SDS011;1289;53.488;10.006;2023-06-22T01:58:20;9.40;;;7.97;;
2558;SDS011;1289;53.488;10.006;2023-06-22T02:00:48;14.43;;;7.70;;
2558;SDS011;1289;53.488;10.006;2023-06-22T02:03:19;8.57;;;7.77;;
2558;SDS011;1289;53.488;10.006;2023-06-22T02:05:47;8.43;;;7.63;;
2558;SDS011;1289;53.488;10.006;2023-06-22T02:08:17;8.33;;;7.27;;
2558;SDS011;1289;53.488;10.006;2023-06-22T02:10:46;8.60;;;7.60;;
2558;SDS011;1289;53.488;10.006;2023-06-22T02:13:14;8.33;;;7.40;;
2558;SDS011;1289;53.488;10.006;2023-06-22T02:15:42;10.33;;;7.80;;
2558;SDS011;1289;53.488;10.006;2023-06-22T02:18:11;8.83;;;7.73;;
2558;SDS011;1289;53.488;10.006;2023-06-22T02:20:39;8.10;;;7.37;;
2558;SDS011;1289;53.488;10.006;2023-06-22T02:23:06;8.77;;;6.90;;
2558;SDS011;1289;53.488;10.006;2023-06-22T02:25:34;10.63;;;7.63;;
2558;SDS011;1289;53.488;10.006;2023-06-22T02:28:01;9.17;;;7.80;;
2558;SDS011;1289;53.488;10.006;2023-06-22T02:30:28;8.13;;;7.33;;
2558;SDS011;1289;53.488;10.006;2023-06-22T02:32:55;7.53;;;6.83;;
2558;SDS011;1289;53.488;10.006;2023-06-22T02:35:24;9.00;;;8.17;;
2558;SDS011;1289;53.488;10.006;2023-06-22T02:37:53;8.80;;;8.00;;
2558;SDS011;1289;53.488;10.006;2023-06-22T02:40:19;10.97;;;7.73;;
2558;SDS011;1289;53.488;10.006;2023-06-22T02:42:46;7.53;;;6.83;;
2558;SDS011;1289;53.488;10.006;2023-06-22T02:45:14;8.20;;;7.40;;
2558;SDS011;1289;53.488;10.006;2023-06-22T02:47:42;8.00;;;7.20;;
2558;SDS011;1289;53.488;10.006;2023-06-22T02:50:09;7.40;;;6.70;;
2558;SDS011;1289;53.488;10.006;2023-06-22T02:52:36;11.00;;;6.80;;
2558;SDS011;1289;53.488;10.006;2023-06-22T02:55:05;8.63;;;7.83;;
2558;SDS011;1289;53.488;10.006;2023-06-22T02:57:33;7.67;;;6.87;;
2558;SDS011;1289;53.488;10.006;2023-06-22T03:00:01;7.70;;;6.70;;
2558;SDS011;1289;53.488;10.006;2023-06-22T03:02:31;8.83;;;7.53;;
2558;SDS011;1289;53.488;10.006;2023-06-22T03:04:58;8.37;;;7.57;;
2558;SDS011;1289;53.488;10.006;2023-06-22T03:07:27;8.93;;;7.60;;
2558;SDS011;1289;53.488;10.006;2023-06-22T03:09:56;8.00;;;7.30;;
2558;SDS011;1289;53.488;10.006;2023-06-22T03:12:25;8.87;;;8.00;;
2558;SDS011;1289;53.488;10.006;2023-06-22T03:14:53;8.13;;;6.50;;
2558;SDS011;1289;53.488;10.006;2023-06-22T03:17:20;8.03;;;6.57;;
2558;SDS011;1289;53.488;10.006;2023-06-22T03:19:46;8.63;;;7.47;;
2558;SDS011;1289;53.488;10.006;2023-06-22T03:22:13;8.50;;;7.77;;
2558;SDS011;1289;53.488;10.006;2023-06-22T03:24:40;9.00;;;7.73;;
2558;SDS011;1289;53.488;10.006;2023-06-22T03:27:07;10.27;;;8.67;;
2558;SDS011;1289;53.488;10.006;2023-06-22T03:29:35;8.67;;;7.77;;
2558;SDS011;1289;53.488;10.006;2023-06-22T03:32:02;9.50;;;8.17;;
2558;SDS011;1289;53.488;10.006;2023-06-22T03:34:30;9.10;;;7.93;;
2558;SDS011;1289;53.488;10.006;2023-06-22T03:36:59;8.60;;;7.80;;
2558;SDS011;1289;53.488;10.006;2023-06-22T03:39:26;12.40;;;8.03;;
2558;SDS011;1289;53.488;10.006;2023-06-22T03:41:53;9.83;;;8.80;;
2558;SDS011;1289;53.488;10.006;2023-06-22T03:44:19;7.50;;;6.90;;
2558;SDS011;1289;53.488;10.006;2023-06-22T03:46:47;8.93;;;8.13;;
2558;SDS011;1289;53.488;10.006;2023-06-22T03:49:14;8.80;;;8.00;;
2558;SDS011;1289;53.488;10.006;2023-06-22T03:51:40;9.73;;;8.63;;
2558;SDS011;1289;53.488;10.006;2023-06-22T03:54:07;9.33;;;8.10;;
2558;SDS011;1289;53.488;10.006;2023-06-22T03:56:33;11.93;;;7.80;;
2558;SDS011;1289;53.488;10.006;2023-06-22T03:59:00;11.50;;;8.10;;
2558;SDS011;1289;53.488;10.006;2023-06-22T04:01:26;8.10;;;7.40;;
2558;SDS011;1289;53.488;10.006;2023-06-22T04:03:54;9.57;;;7.60;;
2558;SDS011;1289;53.488;10.006;2023-06-22T04:06:21;9.20;;;8.07;;
2558;SDS011;1289;53.488;10.006;2023-06-22T04:08:47;7.77;;;6.97;;
2558;SDS011;1289;53.488;10.006;2023-06-22T04:11:16;8.47;;;7.77;;
2558;SDS011;1289;53.488;10.006;2023-06-22T04:13:42;8.70;;;7.27;;
2558;SDS011;1289;53.488;10.006;2023-06-22T04:16:09;8.57;;;7.77;;
2558;SDS011;1289;53.488;10.006;2023-06-22T04:18:35;7.03;;;6.43;;
2558;SDS011;1289;53.488;10.006;2023-06-22T04:21:04;8.80;;;7.80;;
2558;SDS011;1289;53.488;10.006;2023-06-22T04:23:30;9.80;;;7.43;;
2558;SDS011;1289;53.488;10.006;2023-06-22T04:25:57;8.97;;;7.73;;
2558;SDS011;1289;53.488;10.006;2023-06-22T04:28:25;8.47;;;7.67;;
2558;SDS011;1289;53.488;10.006;2023-06-22T04:30:51;8.30;;;7.60;;
2558;SDS011;1289;53.488;10.006;2023-06-22T04:33:22;11.00;;;8.93;;
2558;SDS011;1289;53.488;10.006;2023-06-22T04:35:49;9.43;;;8.53;;
2558;SDS011;1289;53.488;10.006;2023-06-22T04:38:17;9.03;;;8.03;;
2558;SDS011;1289;53.488;10.006;2023-06-22T04:40:43;9.43;;;8.53;;
2558;SDS011;1289;53.488;10.006;2023-06-22T04:43:10;9.33;;;8.27;;
2558;SDS011;1289;53.488;10.006;2023-06-22T04:45:36;9.30;;;8.53;;
2558;SDS011;1289;53.488;10.006;2023-06-22T04:48:04;9.07;;;8.23;;
2558;SDS011;1289;53.488;10.006;2023-06-22T04:50:31;11.43;;;10.33;;
2558;SDS011;1289;53.488;10.006;2023-06-22T04:52:58;10.63;;;9.73;;
2558;SDS011;1289;53.488;10.006;2023-06-22T04:55:25;11.87;;;9.97;;
2558;SDS011;1289;53.488;10.006;2023-06-22T04:57:52;9.60;;;8.37;;
2558;SDS011;1289;53.488;10.006;2023-06-22T05:00:19;9.13;;;8.23;;
2558;SDS011;1289;53.488;10.006;2023-06-22T05:02:48;9.83;;;8.90;;
2558;SDS011;1289;53.488;10.006;2023-06-22T05:05:15;10.30;;;9.30;;
2558;SDS011;1289;53.488;10.006;2023-06-22T05:07:42;10.60;;;9.60;;
2558;SDS011;1289;53.488;10.006;2023-06-22T05:10:10;16.13;;;10.43;;
2558;SDS011;1289;53.488;10.006;2023-06-22T05:12:38;10.23;;;9.10;;
2558;SDS011;1289;53.488;10.006;2023-06-22T05:15:06;11.23;;;9.67;;
2558;SDS011;1289;53.488;10.006;2023-06-22T05:17:33;10.30;;;8.83;;
2558;SDS011;1289;53.488;10.006;2023-06-22T05:20:00;12.83;;;9.03;;
2558;SDS011;1289;53.488;10.006;2023-06-22T05:22:26;9.43;;;8.50;;
2558;SDS011;1289;53.488;10.006;2023-06-22T05:24:53;8.87;;;7.97;;
2558;SDS011;1289;53.488;10.006;2023-06-22T05:27:20;9.40;;;8.40;;
2558;SDS011;1289;53.488;10.006;2023-06-22T05:29:48;9.10;;;8.30;;
2558;SDS011;1289;53.488;10.006;2023-06-22T05:32:14;8.40;;;7.57;;
2558;SDS011;1289;53.488;10.006;2023-06-22T05:34:41;8.63;;;7.83;;
2558;SDS011;1289;53.488;10.006;2023-06-22T05:37:07;8.80;;;7.90;;
2558;SDS011;1289;53.488;10.006;2023-06-22T05:39:34;8.90;;;7.87;;
2558;SDS011;1289;53.488;10.006;2023-06-22T05:42:03;9.63;;;8.53;;
2558;SDS011;1289;53.488;10.006;2023-06-22T05:44:31;8.90;;;8.10;;
2558;SDS011;1289;53.488;10.006;2023-06-22T05:46:59;9.70;;;7.73;;
2558;SDS011;1289;53.488;10.006;2023-06-22T05:49:26;14.93;;;7.90;;
2558;SDS011;1289;53.488;10.006;2023-06-22T05:51:54;8.90;;;8.00;;
2558;SDS011;1289;53.488;10.006;2023-06-22T05:54:21;6.67;;;6.07;;
2558;SDS011;1289;53.488;10.006;2023-06-22T05:56:48;7.67;;;6.40;;
2558;SDS011;1289;53.488;10.006;2023-06-22T05:59:14;7.93;;;6.57;;
2558;SDS011;1289;53.488;10.006;2023-06-22T06:01:41;7.07;;;6.37;;
2558;SDS011;1289;53.488;10.006;2023-06-22T06:04:09;7.17;;;6.10;;
2558;SDS011;1289;53.488;10.006;2023-06-22T06:06:35;6.20;;;5.60;;
2558;SDS011;1289;53.488;10.006;2023-06-22T06:09:02;6.60;;;6.00;;
2558;SDS011;1289;53.488;10.006;2023-06-22T06:11:29;7.80;;;6.40;;
2558;SDS011;1289;53.488;10.006;2023-06-22T06:13:56;8.90;;;7.70;;
2558;SDS011;1289;53.488;10.006;2023-06-22T06:16:22;8.03;;;7.30;;
2558;SDS011;1289;53.488;10.006;2023-06-22T06:18:49;6.67;;;6.00;;
2558;SDS011;1289;53.488;10.006;2023-06-22T06:21:17;10.60;;;7.60;;
2558;SDS011;1289;53.488;10.006;2023-06-22T06:23:44;5.90;;;5.40;;
2558;SDS011;1289;53.488;10.006;2023-06-22T06:26:10;7.80;;;6.53;;
2558;SDS011;1289;53.488;10.006;2023-06-22T06:28:37;6.70;;;6.10;;
2558;SDS011;1289;53.488;10.006;2023-06-22T06:31:03;7.30;;;6.40;;
2558;SDS011;1289;53.488;10.006;2023-06-22T06:33:32;6.70;;;6.10;;
2558;SDS011;1289;53.488;10.006;2023-06-22T06:35:58;6.40;;;5.90;;
2558;SDS011;1289;53.488;10.006;2023-06-22T06:38:28;7.10;;;6.50;;
2558;SDS011;1289;53.488;10.006;2023-06-22T06:40:55;7.33;;;6.60;;
2558;SDS011;1289;53.488;10.006;2023-06-22T06:43:22;6.00;;;5.50;;
2558;SDS011;1289;53.488;10.006;2023-06-22T06:45:49;7.03;;;6.33;;
2558;SDS011;1289;53.488;10.006;2023-06-22T06:48:16;6.33;;;5.83;;
2558;SDS011;1289;53.488;10.006;2023-06-22T06:50:43;6.97;;;6.30;;
2558;SDS011;1289;53.488;10.006;2023-06-22T06:53:09;7.77;;;6.13;;
2558;SDS011;1289;53.488;10.006;2023-06-22T06:55:37;6.20;;;5.70;;
2558;SDS011;1289;53.488;10.006;2023-06-22T06:58:04;9.43;;;6.40;;
2558;SDS011;1289;53.488;10.006;2023-06-22T07:00:32;7.40;;;6.77;;
2558;SDS011;1289;53.488;10.006;2023-06-22T07:03:00;5.87;;;5.43;;
2558;SDS011;1289;53.488;10.006;2023-06-22T07:05:27;6.30;;;5.80;;
2558;SDS011;1289;53.488;10.006;2023-06-22T07:07:54;6.50;;;5.90;;
2558;SDS011;1289;53.488;10.006;2023-06-22T07:10:20;6.70;;;5.70;;
2558;SDS011;1289;53.488;10.006;2023-06-22T07:12:48;6.90;;;6.17;;
2558;SDS011;1289;53.488;10.006;2023-06-22T07:15:15;9.63;;;6.03;;
2558;SDS011;1289;53.488;10.006;2023-06-22T07:17:41;8.47;;;6.17;;
2558;SDS011;1289;53.488;10.006;2023-06-22T07:20:08;6.30;;;5.67;;
2558;SDS011;1289;53.488;10.006;2023-06-22T07:22:37;6.10;;;5.60;;
2558;SDS011;1289;53.488;10.006;2023-06-22T07:25:04;6.03;;;5.27;;
2558;SDS011;1289;53.488;10.006;2023-06-22T07:27:34;6.80;;;5.57;;
2558;SDS011;1289;53.488;10.006;2023-06-22T07:30:04;8.00;;;5.60;;
2558;SDS011;1289;53.488;10.006;2023-06-22T07:32:32;8.93;;;5.60;;
2558;SDS011;1289;53.488;10.006;2023-06-22T07:34:58;6.47;;;5.87;;
2558;SDS011;1289;53.488;10.006;2023-06-22T07:37:25;5.63;;;5.10;;
2558;SDS011;1289;53.488;10.006;2023-06-22T07:39:52;5.80;;;5.30;;
2558;SDS011;1289;53.488;10.006;2023-06-22T07:42:23;5.30;;;4.90;;
2558;SDS011;1289;53.488;10.006;2023-06-22T07:44:50;5.97;;;5.47;;
2558;SDS011;1289;53.488;10.006;2023-06-22T07:47:18;5.13;;;4.73;;
2558;SDS011;1289;53.488;10.006;2023-06-22T07:49:45;6.00;;;5.50;;
2558;SDS011;1289;53.488;10.006;2023-06-22T07:52:11;5.97;;;5.43;;
2558;SDS011;1289;53.488;10.006;2023-06-22T07:54:38;6.13;;;5.60;;
2558;SDS011;1289;53.488;10.006;2023-06-22T07:57:05;5.57;;;5.07;;
2558;SDS011;1289;53.488;10.006;2023-06-22T07:59:32;6.90;;;5.17;;
2558;SDS011;1289;53.488;10.006;2023-06-22T08:01:58;5.60;;;5.20;;
2558;SDS011;1289;53.488;10.006;2023-06-22T08:04:26;4.70;;;4.40;;
2558;SDS011;1289;53.488;10.006;2023-06-22T08:06:54;5.17;;;4.70;;
2558;SDS011;1289;53.488;10.006;2023-06-22T08:09:20;5.00;;;4.60;;
2558;SDS011;1289;53.488;10.006;2023-06-22T08:11:47;5.13;;;4.70;;
2558;SDS011;1289;53.488;10.006;2023-06-22T08:14:14;5.13;;;4.73;;
2558;SDS011;1289;53.488;10.006;2023-06-22T08:16:40;5.30;;;4.80;;
2558;SDS011;1289;53.488;10.006;2023-06-22T08:19:07;5.13;;;4.63;;
2558;SDS011;1289;53.488;10.006;2023-06-22T08:21:35;5.23;;;4.80;;
2558;SDS011;1289;53.488;10.006;2023-06-22T08:24:03;4.87;;;4.47;;
2558;SDS011;1289;53.488;10.006;2023-06-22T08:26:30;4.53;;;4.13;;
2558;SDS011;1289;53.488;10.006;2023-06-22T08:28:58;4.77;;;4.43;;
2558;SDS011;1289;53.488;10.006;2023-06-22T08:31:25;5.47;;;4.97;;
2558;SDS011;1289;53.488;10.006;2023-06-22T08:33:51;5.10;;;4.70;;
2558;SDS011;1289;53.488;10.006;2023-06-22T08:36:18;8.30;;;4.13;;
2558;SDS011;1289;53.488;10.006;2023-06-22T08:38:46;5.07;;;4.57;;
2558;SDS011;1289;53.488;10.006;2023-06-22T08:41:16;5.17;;;4.67;;
2558;SDS011;1289;53.488;10.006;2023-06-22T08:43:43;5.83;;;5.37;;
2558;SDS011;1289;53.488;10.006;2023-06-22T08:46:09;6.97;;;4.43;;
2558;SDS011;1289;53.488;10.006;2023-06-22T08:48:36;5.10;;;4.70;;
2558;SDS011;1289;53.488;10.006;2023-06-22T08:51:04;4.83;;;4.43;;
2558;SDS011;1289;53.488;10.006;2023-06-22T08:53:30;5.53;;;5.03;;
2558;SDS011;1289;53.488;10.006;2023-06-22T08:55:58;4.90;;;4.50;;
2558;SDS011;1289;53.488;10.006;2023-06-22T08:58:25;7.10;;;4.70;;
2558;SDS011;1289;53.488;10.006;2023-06-22T09:00:51;5.23;;;4.47;;
2558;SDS011;1289;53.488;10.006;2023-06-22T09:03:18;4.97;;;4.57;;
2558;SDS011;1289;53.488;10.006;2023-06-22T09:05:45;5.57;;;4.67;;
2558;SDS011;1289;53.488;10.006;2023-06-22T09:08:12;4.87;;;4.47;;
2558;SDS011;1289;53.488;10.006;2023-06-22T09:10:39;4.50;;;4.10;;
2558;SDS011;1289;53.488;10.006;2023-06-22T09:13:07;4.97;;;4.43;;
2558;SDS011;1289;53.488;10.006;2023-06-22T09:15:33;4.80;;;4.40;;
2558;SDS011;1289;53.488;10.006;2023-06-22T09:18:00;5.60;;;5.00;;
2558;SDS011;1289;53.488;10.006;2023-06-22T09:20:27;4.80;;;4.40;;
2558;SDS011;1289;53.488;10.006;2023-06-22T09:22:54;4.83;;;4.43;;
2558;SDS011;1289;53.488;10.006;2023-06-22T09:25:20;4.70;;;4.30;;
2558;SDS011;1289;53.488;10.006;2023-06-22T09:27:47;4.57;;;4.17;;
2558;SDS011;1289;53.488;10.006;2023-06-22T09:30:15;4.87;;;4.37;;
2558;SDS011;1289;53.488;10.006;2023-06-22T09:32:42;4.67;;;4.27;;
2558;SDS011;1289;53.488;10.006;2023-06-22T09:35:09;4.90;;;4.50;;
2558;SDS011;1289;53.488;10.006;2023-06-22T09:37:37;4.63;;;4.27;;
2558;SDS011;1289;53.488;10.006;2023-06-22T09:40:05;4.10;;;3.80;;
2558;SDS011;1289;53.488;10.006;2023-06-22T09:42:35;4.70;;;4.40;;
2558;SDS011;1289;53.488;10.006;2023-06-22T09:45:01;4.63;;;3.97;;
2558;SDS011;1289;53.488;10.006;2023-06-22T09:47:30;4.63;;;4.23;;
2558;SDS011;1289;53.488;10.006;2023-06-22T09:49:56;4.83;;;4.50;;
2558;SDS011;1289;53.488;10.006;2023-06-22T09:52:24;4.63;;;4.13;;
2558;SDS011;1289;53.488;10.006;2023-06-22T09:54:51;4.70;;;4.40;;
2558;SDS011;1289;53.488;10.006;2023-06-22T09:57:18;4.87;;;4.47;;
2558;SDS011;1289;53.488;10.006;2023-06-22T09:59:44;4.63;;;4.23;;
2558;SDS011;1289;53.488;10.006;2023-06-22T10:02:11;4.97;;;4.50;;
2558;SDS011;1289;53.488;10.006;2023-06-22T10:04:39;5.10;;;4.30;;
2558;SDS011;1289;53.488;10.006;2023-06-22T10:07:06;4.87;;;4.47;;
2558;SDS011;1289;53.488;10.006;2023-06-22T10:09:33;4.10;;;3.80;;
2558;SDS011;1289;53.488;10.006;2023-06-22T10:11:59;4.50;;;4.10;;
2558;SDS011;1289;53.488;10.006;2023-06-22T10:14:26;5.00;;;4.60;;
2558;SDS011;1289;53.488;10.006;2023-06-22T10:16:54;5.03;;;4.63;;
2558;SDS011;1289;53.488;10.006;2023-06-22T10:19:21;5.13;;;4.70;;
2558;SDS011;1289;53.488;10.006;2023-06-22T10:21:49;4.73;;;4.33;;
2558;SDS011;1289;53.488;10.006;2023-06-22T10:24:17;5.67;;;5.17;;
2558;SDS011;1289;53.488;10.006;2023-06-22T10:26:43;4.43;;;4.03;;
2558;SDS011;1289;53.488;10.006;2023-06-22T10:29:10;6.30;;;4.60;;
2558;SDS011;1289;53.488;10.006;2023-06-22T10:31:36;5.50;;;5.00;;
2558;SDS011;1289;53.488;10.006;2023-06-22T10:34:03;5.10;;;4.70;;
2558;SDS011;1289;53.488;10.006;2023-06-22T10:36:30;4.90;;;4.50;;
2558;SDS011;1289;53.488;10.006;2023-06-22T10:38:57;6.63;;;4.97;;
2558;SDS011;1289;53.488;10.006;2023-06-22T10:41:26;4.60;;;4.20;;
2558;SDS011;1289;53.488;10.006;2023-06-22T10:43:55;5.20;;;4.80;;
2558;SDS011;1289;53.488;10.006;2023-06-22T10:46:21;5.70;;;5.10;;
2558;SDS011;1289;53.488;10.006;2023-06-22T10:48:48;7.00;;;5.47;;
2558;SDS011;1289;53.488;10.006;2023-06-22T10:51:14;5.70;;;5.20;;
2558;SDS011;1289;53.488;10.006;2023-06-22T10:53:41;5.00;;;4.60;;
2558;SDS011;1289;53.488;10.006;2023-06-22T10:56:09;6.87;;;4.40;;
2558;SDS011;1289;53.488;10.006;2023-06-22T10:58:36;5.50;;;5.10;;
2558;SDS011;1289;53.488;10.006;2023-06-22T11:01:02;6.43;;;5.27;;
2558;SDS011;1289;53.488;10.006;2023-06-22T11:03:29;5.20;;;4.80;;
2558;SDS011;1289;53.488;10.006;2023-06-22T11:05:55;6.20;;;5.70;;
2558;SDS011;1289;53.488;10.006;2023-06-22T11:08:22;5.20;;;4.80;;
2558;SDS011;1289;53.488;10.006;2023-06-22T11:10:50;6.37;;;5.37;;
2558;SDS011;1289;53.488;10.006;2023-06-22T11:13:18;5.70;;;5.30;;
2558;SDS011;1289;53.488;10.006;2023-06-22T11:15:45;5.90;;;5.40;;
2558;SDS011;1289;53.488;10.006;2023-06-22T11:18:12;6.17;;;5.67;;
2558;SDS011;1289;53.488;10.006;2023-06-22T11:20:38;6.60;;;5.60;;
2558;SDS011;1289;53.488;10.006;2023-06-22T11:23:06;6.50;;;6.00;;
2558;SDS011;1289;53.488;10.006;2023-06-22T11:25:32;10.93;;;5.73;;
2558;SDS011;1289;53.488;10.006;2023-06-22T11:28:00;5.90;;;5.50;;
2558;SDS011;1289;53.488;10.006;2023-06-22T11:30:29;5.63;;;5.23;;
2558;SDS011;1289;53.488;10.006;2023-06-22T11:32:56;5.90;;;5.50;;
2558;SDS011;1289;53.488;10.006;2023-06-22T11:35:23;5.67;;;5.27;;
2558;SDS011;1289;53.488;10.006;2023-06-22T11:37:49;5.43;;;4.80;;
2558;SDS011;1289;53.488;10.006;2023-06-22T11:40:16;7.13;;;6.47;;
2558;SDS011;1289;53.488;10.006;2023-06-22T11:42:43;6.27;;;5.70;;
2558;SDS011;1289;53.488;10.006;2023-06-22T11:45:09;6.20;;;5.70;;
2558;SDS011;1289;53.488;10.006;2023-06-22T11:47:37;6.57;;;5.93;;
2558;SDS011;1289;53.488;10.006;2023-06-22T11:50:05;5.93;;;5.53;;
2558;SDS011;1289;53.488;10.006;2023-06-22T11:52:33;5.97;;;5.50;;
2558;SDS011;1289;53.488;10.006;2023-06-22T11:55:01;6.13;;;5.70;;
2558;SDS011;1289;53.488;10.006;2023-06-22T11:57:28;6.97;;;6.27;;
2558;SDS011;1289;53.488;10.006;2023-06-22T11:59:55;7.23;;;5.17;;
2558;SDS011;1289;53.488;10.006;2023-06-22T12:02:22;6.20;;;5.70;;
2558;SDS011;1289;53.488;10.006;2023-06-22T12:04:50;6.53;;;5.97;;
2558;SDS011;1289;53.488;10.006;2023-06-22T12:07:17;6.83;;;6.30;;
2558;SDS011;1289;53.488;10.006;2023-06-22T12:09:44;6.40;;;5.90;;
2558;SDS011;1289;53.488;10.006;2023-06-22T12:12:10;6.60;;;6.00;;
2558;SDS011;1289;53.488;10.006;2023-06-22T12:14:37;5.93;;;5.33;;
2558;SDS011;1289;53.488;10.006;2023-06-22T12:17:03;6.40;;;5.90;;
2558;SDS011;1289;53.488;10.006;2023-06-22T12:19:30;5.83;;;5.33;;
2558;SDS011;1289;53.488;10.006;2023-06-22T12:21:58;6.10;;;5.70;;
2558;SDS011;1289;53.488;10.006;2023-06-22T12:24:24;7.00;;;6.30;;
2558;SDS011;1289;53.488;10.006;2023-06-22T12:26:51;7.20;;;6.63;;
2558;SDS011;1289;53.488;10.006;2023-06-22T12:29:17;6.07;;;5.43;;
2558;SDS011;1289;53.488;10.006;2023-06-22T12:31:44;5.90;;;5.40;;
2558;SDS011;1289;53.488;10.006;2023-06-22T12:34:11;5.80;;;5.40;;
2558;SDS011;1289;53.488;10.006;2023-06-22T12:36:37;7.20;;;6.60;;
2558;SDS011;1289;53.488;10.006;2023-06-22T12:39:05;6.37;;;5.87;;
2558;SDS011;1289;53.488;10.006;2023-06-22T12:41:31;8.00;;;6.50;;
2558;SDS011;1289;53.488;10.006;2023-06-22T12:43:58;7.00;;;6.30;;
2558;SDS011;1289;53.488;10.006;2023-06-22T12:46:25;6.70;;;6.30;;
2558;SDS011;1289;53.488;10.006;2023-06-22T12:48:51;10.47;;;7.30;;
2558;SDS011;1289;53.488;10.006;2023-06-22T12:51:21;7.00;;;6.50;;
2558;SDS011;1289;53.488;10.006;2023-06-22T12:53:48;6.87;;;6.33;;
2558;SDS011;1289;53.488;10.006;2023-06-22T12:56:16;6.80;;;5.50;;
2558;SDS011;1289;53.488;10.006;2023-06-22T12:58:43;6.20;;;5.70;;
2558;SDS011;1289;53.488;10.006;2023-06-22T13:01:09;6.63;;;6.13;;
2558;SDS011;1289;53.488;10.006;2023-06-22T13:03:36;8.43;;;7.30;;
2558;SDS011;1289;53.488;10.006;2023-06-22T13:06:03;6.90;;;6.30;;
2558;SDS011;1289;53.488;10.006;2023-06-22T13:08:29;7.70;;;7.00;;
2558;SDS011;1289;53.488;10.006;2023-06-22T13:10:56;6.90;;;6.40;;
2558;SDS011;1289;53.488;10.006;2023-06-22T13:13:25;7.23;;;6.63;;
2558;SDS011;1289;53.488;10.006;2023-06-22T13:15:52;6.97;;;6.27;;
2558;SDS011;1289;53.488;10.006;2023-06-22T13:18:19;7.33;;;6.63;;
2558;SDS011;1289;53.488;10.006;2023-06-22T13:20:46;7.40;;;6.80;;
2558;SDS011;1289;53.488;10.006;2023-06-22T13:23:12;7.30;;;6.70;;
2558;SDS011;1289;53.488;10.006;2023-06-22T13:25:39;7.30;;;6.73;;
2558;SDS011;1289;53.488;10.006;2023-06-22T13:28:05;6.90;;;6.40;;
2558;SDS011;1289;53.488;10.006;2023-06-22T13:30:33;8.63;;;7.30;;
2558;SDS011;1289;53.488;10.006;2023-06-22T13:33:00;7.20;;;6.60;;
2558;SDS011;1289;53.488;10.006;2023-06-22T13:35:27;7.57;;;7.07;;
2558;SDS011;1289;53.488;10.006;2023-06-22T13:37:53;7.57;;;6.87;;
2558;SDS011;1289;53.488;10.006;2023-06-22T13:40:20;7.83;;;7.23;;
2558;SDS011;1289;53.488;10.006;2023-06-22T13:42:46;7.60;;;7.03;;
2558;SDS011;1289;53.488;10.006;2023-06-22T13:45:13;6.93;;;6.43;;
2558;SDS011;1289;53.488;10.006;2023-06-22T13:47:43;7.80;;;7.20;;
2558;SDS011;1289;53.488;10.006;2023-06-22T13:50:09;7.93;;;7.27;;
2558;SDS011;1289;53.488;10.006;2023-06-22T13:52:37;7.50;;;6.80;;
2558;SDS011;1289;53.488;10.006;2023-06-22T13:55:04;7.23;;;6.47;;
2558;SDS011;1289;53.488;10.006;2023-06-22T13:57:32;7.00;;;6.50;;
2558;SDS011;1289;53.488;10.006;2023-06-22T13:59:59;7.57;;;6.87;;
2558;SDS011;1289;53.488;10.006;2023-06-22T14:02:26;7.60;;;7.00;;
2558;SDS011;1289;53.488;10.006;2023-06-22T14:04:54;7.17;;;6.63;;
2558;SDS011;1289;53.488;10.006;2023-06-22T14:07:21;6.83;;;6.23;;
2558;SDS011;1289;53.488;10.006;2023-06-22T14:09:49;8.17;;;7.50;;
2558;SDS011;1289;53.488;10.006;2023-06-22T14:12:16;6.80;;;6.30;;
2558;SDS011;1289;53.488;10.006;2023-06-22T14:14:43;8.17;;;7.40;;
2558;SDS011;1289;53.488;10.006;2023-06-22T14:17:09;7.00;;;6.40;;
2558;SDS011;1289;53.488;10.006;2023-06-22T14:19:36;7.57;;;6.97;;
2558;SDS011;1289;53.488;10.006;2023-06-22T14:22:05;7.70;;;7.00;;
2558;SDS011;1289;53.488;10.006;2023-06-22T14:24:32;10.10;;;7.70;;
2558;SDS011;1289;53.488;10.006;2023-06-22T14:26:58;8.47;;;7.67;;
2558;SDS011;1289;53.488;10.006;2023-06-22T14:29:27;9.53;;;6.73;;
2558;SDS011;1289;53.488;10.006;2023-06-22T14:31:54;7.83;;;7.33;;
2558;SDS011;1289;53.488;10.006;2023-06-22T14:34:20;7.90;;;7.30;;
2558;SDS011;1289;53.488;10.006;2023-06-22T14:36:48;7.97;;;7.27;;
2558;SDS011;1289;53.488;10.006;2023-06-22T14:39:15;8.17;;;7.37;;
2558;SDS011;1289;53.488;10.006;2023-06-22T14:41:42;8.60;;;8.00;;
2558;SDS011;1289;53.488;10.006;2023-06-22T14:44:09;8.80;;;8.10;;
2558;SDS011;1289;53.488;10.006;2023-06-22T14:46:35;8.33;;;7.30;;
2558;SDS011;1289;53.488;10.006;2023-06-22T14:49:02;8.40;;;7.60;;
2558;SDS011;1289;53.488;10.006;2023-06-22T14:51:28;8.00;;;7.20;;
2558;SDS011;1289;53.488;10.006;2023-06-22T14:53:55;10.20;;;7.40;;
2558;SDS011;1289;53.488;10.006;2023-06-22T14:56:24;7.50;;;6.80;;
2558;SDS011;1289;53.488;10.006;2023-06-22T14:58:50;7.20;;;6.53;;
2558;SDS011;1289;53.488;10.006;2023-06-22T15:01:17;8.00;;;7.40;;